createdAt,value
2023-02-25T00:01:35.471Z,9.00
2023-02-25T00:04:02.135Z,9.60
2023-02-25T00:06:28.817Z,9.18
2023-02-25T00:08:55.908Z,9.15
2023-02-25T00:11:25.430Z,11.32
2023-02-25T00:13:52.574Z,10.52
2023-02-25T00:16:21.338Z,9.57
2023-02-25T00:18:48.911Z,9.43
2023-02-25T00:21:16.792Z,8.77
2023-02-25T00:23:48.057Z,10.00
2023-02-25T00:26:16.207Z,10.35
2023-02-25T00:28:43.387Z,8.52
2023-02-25T00:31:12.285Z,8.98
2023-02-25T00:33:41.981Z,7.97
2023-02-25T00:36:10.842Z,7.93
2023-02-25T00:38:37.427Z,7.43
2023-02-25T00:41:14.139Z,6.22
2023-02-25T00:43:42.552Z,6.60
2023-02-25T00:46:10.585Z,5.25
2023-02-25T00:48:37.748Z,6.75
2023-02-25T00:51:09.083Z,6.38
2023-02-25T00:53:35.979Z,6.55
2023-02-25T00:56:02.704Z,8.35
2023-02-25T00:58:29.301Z,7.05
2023-02-25T01:00:56.650Z,5.68
2023-02-25T01:03:23.772Z,6.05
2023-02-25T01:05:50.481Z,6.05
2023-02-25T01:08:19.365Z,4.93
2023-02-25T01:10:47.715Z,3.50
2023-02-25T01:13:15.633Z,3.35
2023-02-25T01:15:42.583Z,5.25
2023-02-25T01:18:09.214Z,4.45
2023-02-25T01:20:39.429Z,5.03
2023-02-25T01:23:06.046Z,4.65
2023-02-25T01:25:32.767Z,3.30
2023-02-25T01:27:59.382Z,2.78
2023-02-25T01:30:26.338Z,1.77
2023-02-25T01:32:53.029Z,1.33
2023-02-25T01:35:19.652Z,0.98
2023-02-25T01:37:47.598Z,0.80
2023-02-25T01:40:18.475Z,1.40
2023-02-25T01:42:45.994Z,0.75
2023-02-25T01:45:18.137Z,0.82
2023-02-25T01:47:50.437Z,0.60
2023-02-25T01:50:22.642Z,0.88
2023-02-25T01:52:49.435Z,1.05
2023-02-25T01:55:16.186Z,0.52
2023-02-25T01:57:43.481Z,0.45
2023-02-25T02:00:19.702Z,0.60
2023-02-25T02:02:49.752Z,0.70
2023-02-25T02:05:17.067Z,0.50
2023-02-25T02:07:43.705Z,0.60
2023-02-25T02:10:10.912Z,0.70
2023-02-25T02:12:45.755Z,1.25
2023-02-25T02:15:15.201Z,1.00
2023-02-25T02:17:59.583Z,0.95
2023-02-25T02:20:30.737Z,0.70
2023-02-25T02:23:06.266Z,0.60
2023-02-25T02:26:09.640Z,1.02
2023-02-25T02:28:51.336Z,1.10
2023-02-25T02:31:33.105Z,1.00
2023-02-25T02:34:19.939Z,0.82
2023-02-25T02:37:07.944Z,0.50
2023-02-25T02:40:14.516Z,0.40
2023-02-25T02:42:52.968Z,0.20
2023-02-25T02:45:25.827Z,0.25
2023-02-25T02:48:18.397Z,0.30
2023-02-25T02:50:52.702Z,0.20
2023-02-25T02:53:34.783Z,0.70
2023-02-25T02:56:04.819Z,0.30
2023-02-25T02:58:56.139Z,0.40
2023-02-25T03:01:31.616Z,0.30
2023-02-25T03:04:12.995Z,0.40
2023-02-25T03:06:43.068Z,0.38
2023-02-25T03:09:32.009Z,0.50
2023-02-25T03:11:58.712Z,0.30
2023-02-25T03:14:25.259Z,0.30
2023-02-25T03:17:11.977Z,0.30
2023-02-25T03:19:50.873Z,0.20
2023-02-25T03:22:22.276Z,0.30
2023-02-25T03:25:13.492Z,0.20
2023-02-25T03:27:43.544Z,0.25
2023-02-25T03:30:16.875Z,0.20
2023-02-25T03:32:48.402Z,0.10
2023-02-25T03:35:19.041Z,0.30
2023-02-25T03:37:50.928Z,0.22
2023-02-25T03:40:21.363Z,0.20
2023-02-25T03:43:01.615Z,0.20
2023-02-25T03:45:28.422Z,0.10
2023-02-25T03:47:57.932Z,0.20
2023-02-25T03:50:29.913Z,0.20
2023-02-25T03:52:56.666Z,0.20
2023-02-25T03:55:23.902Z,0.20
2023-02-25T03:57:52.023Z,0.30
2023-02-25T04:00:24.350Z,0.17
2023-02-25T04:02:51.733Z,0.20
2023-02-25T04:05:20.812Z,0.20
2023-02-25T04:07:47.699Z,0.20
2023-02-25T04:10:16.404Z,0.20
2023-02-25T04:12:43.101Z,0.22
2023-02-25T04:15:10.298Z,0.20
2023-02-25T04:17:37.254Z,0.20
2023-02-25T04:20:05.361Z,0.20
2023-02-25T04:22:33.247Z,0.20
2023-02-25T04:25:00.166Z,0.30
2023-02-25T04:27:27.350Z,0.20
2023-02-25T04:29:53.957Z,0.20
2023-02-25T04:32:20.603Z,0.20
2023-02-25T04:34:47.368Z,0.28
2023-02-25T04:37:13.900Z,0.20
2023-02-25T04:39:40.445Z,0.20
2023-02-25T04:42:07.374Z,0.20
2023-02-25T04:44:34.027Z,0.30
2023-02-25T04:47:00.734Z,0.30
2023-02-25T04:49:27.388Z,0.30
2023-02-25T04:51:54.059Z,0.20
2023-02-25T04:54:21.216Z,0.30
2023-02-25T04:56:48.371Z,0.30
2023-02-25T04:59:16.153Z,0.30
2023-02-25T05:01:43.171Z,0.20
2023-02-25T05:04:09.921Z,0.30
2023-02-25T05:06:36.592Z,0.28
2023-02-25T05:09:03.867Z,0.45
2023-02-25T05:11:30.589Z,0.85
2023-02-25T05:13:57.374Z,1.70
2023-02-25T05:16:24.969Z,1.13
2023-02-25T05:18:52.123Z,0.90
2023-02-25T05:21:21.621Z,1.02
2023-02-25T05:23:49.766Z,0.40
2023-02-25T05:26:21.455Z,1.00
2023-02-25T05:28:50.383Z,1.05
2023-02-25T05:31:17.266Z,0.50
2023-02-25T05:33:43.913Z,0.30
2023-02-25T05:36:14.415Z,0.30
2023-02-25T05:38:41.799Z,0.32
2023-02-25T05:41:09.972Z,0.30
2023-02-25T05:43:38.168Z,0.20
2023-02-25T05:46:05.325Z,0.30
2023-02-25T05:48:32.803Z,0.20
2023-02-25T05:51:05.685Z,0.30
2023-02-25T05:53:32.644Z,0.10
2023-02-25T05:55:59.237Z,0.30
2023-02-25T05:58:25.919Z,0.20
2023-02-25T06:00:53.963Z,0.30
2023-02-25T06:03:20.650Z,0.35
2023-02-25T06:05:48.115Z,0.30
2023-02-25T06:08:14.728Z,0.20
2023-02-25T06:10:41.250Z,0.15
2023-02-25T06:13:09.274Z,0.20
2023-02-25T06:15:40.214Z,0.20
2023-02-25T06:18:06.930Z,0.20
2023-02-25T06:20:35.258Z,0.22
2023-02-25T06:23:03.497Z,0.20
2023-02-25T06:25:30.504Z,0.20
2023-02-25T06:27:58.224Z,0.30
2023-02-25T06:30:25.310Z,0.30
2023-02-25T06:32:52.009Z,0.28
2023-02-25T06:35:21.067Z,0.20
2023-02-25T06:37:47.680Z,0.40
2023-02-25T06:40:15.265Z,0.30
2023-02-25T06:42:42.098Z,0.20
2023-02-25T06:45:09.150Z,0.20
2023-02-25T06:47:35.770Z,0.20
2023-02-25T06:50:02.822Z,0.25
2023-02-25T06:52:29.513Z,0.20
2023-02-25T06:54:56.061Z,0.25
2023-02-25T06:57:22.613Z,0.10
2023-02-25T06:59:49.412Z,0.30
2023-02-25T07:02:16.534Z,0.30
2023-02-25T07:04:44.085Z,0.20
2023-02-25T07:07:10.821Z,0.35
2023-02-25T07:09:37.364Z,0.30
2023-02-25T07:12:04.280Z,0.30
2023-02-25T07:14:30.886Z,0.20
2023-02-25T07:16:57.426Z,0.30
2023-02-25T07:19:24.004Z,0.30
2023-02-25T07:21:50.572Z,0.30
2023-02-25T07:24:17.617Z,0.20
2023-02-25T07:26:44.199Z,0.30
2023-02-25T07:29:10.795Z,0.30
2023-02-25T07:31:37.489Z,0.30
2023-02-25T07:34:04.471Z,0.32
2023-02-25T07:36:37.545Z,0.30
2023-02-25T07:39:06.748Z,0.30
2023-02-25T07:41:33.433Z,1.13
2023-02-25T07:44:00.096Z,0.40
2023-02-25T07:46:27.175Z,0.55
2023-02-25T07:48:53.785Z,0.50
2023-02-25T07:51:23.477Z,1.92
2023-02-25T07:53:51.945Z,0.77
2023-02-25T07:56:21.018Z,0.52
2023-02-25T07:58:47.724Z,0.60
2023-02-25T08:01:17.241Z,1.10
2023-02-25T08:03:43.828Z,0.30
2023-02-25T08:06:10.388Z,1.00
2023-02-25T08:08:38.310Z,0.65
2023-02-25T08:11:06.843Z,0.60
2023-02-25T08:13:33.649Z,0.47
2023-02-25T08:16:00.218Z,0.70
2023-02-25T08:18:26.812Z,0.43
2023-02-25T08:20:55.933Z,0.50
2023-02-25T08:23:23.355Z,0.50
2023-02-25T08:25:56.413Z,0.47
2023-02-25T08:28:24.533Z,0.60
2023-02-25T08:30:51.174Z,0.50
2023-02-25T08:33:18.081Z,0.52
2023-02-25T08:35:44.780Z,0.60
2023-02-25T08:38:13.035Z,0.60
2023-02-25T08:40:40.426Z,0.60
2023-02-25T08:43:07.845Z,0.60
2023-02-25T08:45:34.698Z,0.60
2023-02-25T08:48:01.186Z,0.50
2023-02-25T08:50:27.909Z,0.47
2023-02-25T08:52:54.450Z,0.38
2023-02-25T08:55:24.689Z,0.47
2023-02-25T08:57:52.678Z,0.50
2023-02-25T09:00:21.292Z,0.40
2023-02-25T09:02:48.403Z,0.30
2023-02-25T09:05:14.956Z,0.50
2023-02-25T09:07:41.476Z,0.40
2023-02-25T09:10:09.273Z,0.63
2023-02-25T09:12:38.240Z,0.40
2023-02-25T09:15:05.699Z,0.40
2023-02-25T09:17:32.213Z,0.50
2023-02-25T09:20:01.270Z,0.70
2023-02-25T09:22:28.519Z,0.57
2023-02-25T09:24:56.126Z,0.60
2023-02-25T09:27:22.635Z,0.60
2023-02-25T09:29:49.253Z,0.50
2023-02-25T09:32:19.819Z,0.60
2023-02-25T09:34:49.133Z,0.63
2023-02-25T09:37:16.778Z,0.60
2023-02-25T09:39:43.369Z,1.02
2023-02-25T09:42:14.190Z,0.60
2023-02-25T09:44:45.296Z,0.70
2023-02-25T09:47:17.779Z,0.50
2023-02-25T09:50:03.201Z,0.70
2023-02-25T09:52:40.840Z,0.60
2023-02-25T09:55:30.986Z,0.88
2023-02-25T09:58:20.193Z,0.80
2023-02-25T10:00:58.369Z,0.80
2023-02-25T10:03:36.696Z,0.98
2023-02-25T10:06:07.565Z,0.50
2023-02-25T10:08:58.753Z,0.90
2023-02-25T10:11:36.436Z,0.70
2023-02-25T10:14:43.210Z,0.82
2023-02-25T10:17:21.846Z,0.52
2023-02-25T10:20:09.604Z,0.63
2023-02-25T10:23:18.693Z,0.65
2023-02-25T10:26:03.416Z,0.80
2023-02-25T10:28:32.163Z,0.73
2023-02-25T10:31:16.039Z,0.85
2023-02-25T10:33:46.020Z,0.65
2023-02-25T10:36:21.528Z,0.63
2023-02-25T10:38:51.201Z,0.70
2023-02-25T10:41:22.633Z,0.90
2023-02-25T10:43:50.845Z,0.60
2023-02-25T10:46:23.674Z,0.68
2023-02-25T10:48:59.318Z,0.50
2023-02-25T10:51:28.336Z,0.50
2023-02-25T10:53:57.835Z,0.43
2023-02-25T10:56:27.563Z,0.65
2023-02-25T10:59:35.739Z,0.70
2023-02-25T11:02:03.236Z,0.80
2023-02-25T11:04:36.328Z,0.70
2023-02-25T11:07:43.177Z,0.98
2023-02-25T11:10:16.075Z,0.70
2023-02-25T11:12:55.544Z,0.60
2023-02-25T11:15:45.997Z,0.70
2023-02-25T11:18:23.884Z,0.50
2023-02-25T11:21:00.819Z,0.60
2023-02-25T11:23:39.579Z,0.80
2023-02-25T11:26:08.472Z,0.73
2023-02-25T11:28:41.220Z,0.77
2023-02-25T11:31:13.182Z,0.77
2023-02-25T11:33:45.586Z,0.80
2023-02-25T11:36:12.741Z,0.68
2023-02-25T11:38:42.439Z,0.70
2023-02-25T11:41:18.740Z,0.82
2023-02-25T11:43:45.302Z,0.80
2023-02-25T11:46:19.642Z,0.82
2023-02-25T11:48:50.754Z,0.70
2023-02-25T11:51:23.132Z,0.60
2023-02-25T11:54:14.037Z,0.70
2023-02-25T11:56:48.625Z,0.70
2023-02-25T12:00:04.624Z,0.60
2023-02-25T12:02:55.917Z,0.50
2023-02-25T12:05:53.411Z,0.70
2023-02-25T12:08:26.004Z,0.70
2023-02-25T12:11:07.600Z,1.13
2023-02-25T12:14:02.752Z,0.60
2023-02-25T12:17:02.170Z,0.50
2023-02-25T12:20:18.603Z,0.70
2023-02-25T12:23:14.429Z,0.68
2023-02-25T12:26:08.977Z,0.50
2023-02-25T12:28:58.719Z,0.63
2023-02-25T12:31:56.072Z,0.70
2023-02-25T12:34:58.522Z,0.60
2023-02-25T12:38:02.555Z,0.60
2023-02-25T12:40:51.061Z,0.77
2023-02-25T12:43:40.536Z,1.02
2023-02-25T12:46:39.660Z,0.75
2023-02-25T12:49:39.146Z,0.73
2023-02-25T12:52:36.404Z,0.55
2023-02-25T12:55:24.112Z,0.77
2023-02-25T12:58:00.116Z,0.68
2023-02-25T13:00:51.660Z,0.47
2023-02-25T13:03:44.891Z,1.00
2023-02-25T13:06:33.186Z,0.47
2023-02-25T13:09:24.585Z,0.80
2023-02-25T13:12:12.900Z,0.43
2023-02-25T13:14:49.905Z,0.60
2023-02-25T13:17:42.439Z,0.80
2023-02-25T13:20:36.617Z,0.70
2023-02-25T13:23:32.163Z,0.57
2023-02-25T13:26:20.595Z,0.70
2023-02-25T13:29:23.214Z,0.70
2023-02-25T13:31:53.038Z,0.70
2023-02-25T13:34:47.119Z,0.73
2023-02-25T13:37:52.687Z,0.52
2023-02-25T13:40:58.207Z,0.52
2023-02-25T13:43:47.808Z,0.70
2023-02-25T13:46:37.686Z,0.90
2023-02-25T13:49:31.582Z,0.85
2023-02-25T13:52:16.913Z,0.70
2023-02-25T13:54:52.226Z,0.75
2023-02-25T13:57:24.721Z,0.57
2023-02-25T14:00:04.523Z,0.50
2023-02-25T14:03:12.905Z,0.73
2023-02-25T14:05:42.487Z,0.80
2023-02-25T14:08:27.145Z,0.70
2023-02-25T14:11:17.630Z,0.60
2023-02-25T14:13:53.427Z,0.60
2023-02-25T14:16:41.977Z,0.80
2023-02-25T14:19:39.406Z,0.82
2023-02-25T14:22:20.140Z,0.50
2023-02-25T14:25:00.193Z,0.70
2023-02-25T14:27:41.502Z,0.45
2023-02-25T14:30:28.674Z,0.82
2023-02-25T14:33:18.477Z,0.90
2023-02-25T14:36:20.681Z,0.63
2023-02-25T14:39:21.688Z,1.10
2023-02-25T14:42:17.034Z,0.90
2023-02-25T14:44:53.196Z,0.77
2023-02-25T14:47:28.368Z,0.50
2023-02-25T14:50:03.660Z,0.50
2023-02-25T14:52:57.861Z,0.82
2023-02-25T14:55:46.359Z,0.70
2023-02-25T14:58:31.056Z,0.52
2023-02-25T15:01:22.326Z,0.68
2023-02-25T15:04:07.391Z,0.52
2023-02-25T15:06:44.843Z,0.57
2023-02-25T15:09:40.371Z,0.60
2023-02-25T15:12:19.806Z,0.60
2023-02-25T15:14:48.936Z,0.70
2023-02-25T15:17:37.019Z,0.50
2023-02-25T15:20:06.428Z,0.80
2023-02-25T15:22:33.595Z,0.52
2023-02-25T15:25:20.351Z,0.70
2023-02-25T15:27:53.330Z,0.60
2023-02-25T15:30:23.503Z,0.63
2023-02-25T15:33:14.716Z,0.63
2023-02-25T15:35:41.252Z,0.73
2023-02-25T15:38:18.244Z,0.50
2023-02-25T15:40:50.780Z,0.60
2023-02-25T15:43:17.239Z,0.60
2023-02-25T15:45:44.240Z,0.55
2023-02-25T15:48:11.037Z,0.60
2023-02-25T15:50:43.747Z,0.70
2023-02-25T15:53:23.523Z,0.60
2023-02-25T15:56:13.355Z,0.70
2023-02-25T15:58:50.402Z,0.63
2023-02-25T16:01:39.780Z,0.60
2023-02-25T16:04:42.142Z,0.70
2023-02-25T16:07:14.257Z,0.68
2023-02-25T16:09:48.081Z,0.82
2023-02-25T16:14:42.293Z,0.90
2023-02-25T16:17:31.160Z,0.60
2023-02-25T16:20:13.285Z,0.70
2023-02-25T16:22:44.166Z,0.70
2023-02-25T16:25:15.977Z,0.63
2023-02-25T16:27:52.466Z,1.00
2023-02-25T16:30:40.317Z,0.50
2023-02-25T16:33:21.628Z,0.80
2023-02-25T16:35:55.368Z,0.70
2023-02-25T16:38:44.779Z,0.60
2023-02-25T16:41:14.137Z,0.60
2023-02-25T16:43:43.376Z,0.90
2023-02-25T16:46:34.543Z,0.70
2023-02-25T16:49:04.692Z,0.70
2023-02-25T16:51:41.379Z,0.80
2023-02-25T16:54:24.958Z,0.70
2023-02-25T16:56:57.955Z,0.85
2023-02-25T16:59:24.555Z,0.80
2023-02-25T17:02:00.110Z,0.85
2023-02-25T17:04:33.764Z,0.90
2023-02-25T17:07:07.891Z,0.70
2023-02-25T17:09:35.681Z,0.95
2023-02-25T17:12:04.051Z,0.60
2023-02-25T17:14:31.626Z,0.70
2023-02-25T17:16:59.147Z,0.88
2023-02-25T17:19:26.736Z,0.70
2023-02-25T17:21:58.775Z,1.10
2023-02-25T17:24:32.489Z,0.90
2023-02-25T17:27:00.985Z,0.70
2023-02-25T17:29:36.643Z,0.68
2023-02-25T17:32:20.297Z,0.55
2023-02-25T17:34:47.933Z,0.90
2023-02-25T17:37:16.042Z,0.70
2023-02-25T17:39:45.021Z,0.57
2023-02-25T17:42:47.051Z,0.60
2023-02-25T17:45:53.377Z,0.55
2023-02-25T17:48:21.901Z,1.63
2023-02-25T17:50:53.484Z,1.67
2023-02-25T17:53:40.560Z,2.50
2023-02-25T17:56:22.997Z,1.08
2023-02-25T17:58:51.526Z,1.23
2023-02-25T18:01:48.709Z,1.00
2023-02-25T18:04:43.303Z,0.95
2023-02-25T18:07:30.677Z,1.15
2023-02-25T18:09:57.475Z,0.98
2023-02-25T18:12:29.256Z,0.90
2023-02-25T18:14:58.493Z,1.10
2023-02-25T18:17:28.753Z,0.90
2023-02-25T18:19:59.207Z,1.00
2023-02-25T18:22:39.487Z,0.82
2023-02-25T18:25:27.914Z,0.88
2023-02-25T18:27:54.939Z,1.05
2023-02-25T18:30:24.249Z,1.00
2023-02-25T18:32:51.115Z,0.93
2023-02-25T18:35:18.193Z,0.80
2023-02-25T18:37:49.221Z,0.85
2023-02-25T18:40:40.476Z,1.20
2023-02-25T18:43:07.252Z,0.95
2023-02-25T18:45:34.527Z,0.73
2023-02-25T18:48:01.766Z,0.80
2023-02-25T18:50:32.947Z,0.50
2023-02-25T18:53:00.640Z,0.45
2023-02-25T18:55:32.923Z,0.60
2023-02-25T18:57:59.940Z,0.40
2023-02-25T19:00:27.828Z,0.50
2023-02-25T19:03:00.085Z,0.47
2023-02-25T19:05:27.844Z,0.50
2023-02-25T19:07:55.072Z,0.50
2023-02-25T19:10:30.464Z,0.50
2023-02-25T19:13:14.722Z,0.60
2023-02-25T19:15:41.423Z,0.60
2023-02-25T19:18:12.398Z,0.50
2023-02-25T19:20:38.972Z,0.47
2023-02-25T19:23:05.625Z,0.70
2023-02-25T19:25:36.104Z,0.65
2023-02-25T19:28:03.056Z,0.47
2023-02-25T19:30:34.974Z,0.45
2023-02-25T19:33:04.852Z,0.95
2023-02-25T19:35:34.477Z,0.80
2023-02-25T19:38:01.401Z,0.45
2023-02-25T19:40:29.392Z,0.60
2023-02-25T19:42:56.084Z,0.90
2023-02-25T19:45:25.096Z,1.08
2023-02-25T19:47:53.226Z,0.70
2023-02-25T19:50:24.204Z,0.40
2023-02-25T19:52:51.993Z,0.57
2023-02-25T19:55:19.205Z,0.40
2023-02-25T19:57:46.728Z,0.40
2023-02-25T20:00:18.205Z,0.60
2023-02-25T20:02:45.204Z,0.50
2023-02-25T20:05:12.792Z,0.50
2023-02-25T20:07:39.400Z,0.60
2023-02-25T20:10:09.160Z,0.40
2023-02-25T20:12:35.828Z,0.40
2023-02-25T20:15:02.400Z,0.43
2023-02-25T20:17:28.993Z,0.30
2023-02-25T20:19:55.566Z,0.40
2023-02-25T20:22:23.895Z,0.40
2023-02-25T20:24:51.046Z,0.40
2023-02-25T20:27:18.288Z,0.40
2023-02-25T20:29:44.950Z,0.88
2023-02-25T20:32:11.621Z,0.60
2023-02-25T20:34:38.455Z,0.55
2023-02-25T20:37:20.869Z,0.60
2023-02-25T20:39:55.474Z,0.60
2023-02-25T20:42:25.268Z,0.60
2023-02-25T20:44:52.837Z,0.80
2023-02-25T20:47:21.296Z,0.60
2023-02-25T20:49:48.090Z,0.57
2023-02-25T20:52:15.358Z,0.60
2023-02-25T20:54:42.715Z,0.40
2023-02-25T20:57:15.275Z,0.50
2023-02-25T20:59:42.258Z,0.90
2023-02-25T21:02:10.009Z,0.50
2023-02-25T21:04:36.612Z,0.43
2023-02-25T21:07:03.935Z,0.40
2023-02-25T21:09:30.856Z,0.50
2023-02-25T21:11:57.391Z,0.47
2023-02-25T21:14:23.974Z,0.40
2023-02-25T21:16:54.315Z,1.95
2023-02-25T21:19:23.317Z,0.63
2023-02-25T21:21:50.471Z,0.45
2023-02-25T21:24:17.980Z,0.60
2023-02-25T21:26:45.896Z,0.70
2023-02-25T21:29:13.420Z,0.65
2023-02-25T21:31:40.804Z,0.50
2023-02-25T21:34:09.195Z,0.63
2023-02-25T21:36:36.175Z,0.60
2023-02-25T21:39:03.329Z,0.60
2023-02-25T21:41:30.024Z,0.70
2023-02-25T21:43:57.252Z,0.80
2023-02-25T21:46:24.719Z,0.70
2023-02-25T21:48:53.228Z,0.60
2023-02-25T21:51:22.973Z,0.60
2023-02-25T21:53:54.378Z,0.93
2023-02-25T21:56:21.597Z,0.90
2023-02-25T21:58:49.408Z,0.80
2023-02-25T22:01:21.896Z,0.80
2023-02-25T22:03:48.981Z,0.55
2023-02-25T22:06:16.208Z,0.60
2023-02-25T22:08:45.668Z,0.57
2023-02-25T22:11:20.875Z,0.85
2023-02-25T22:13:48.407Z,0.73
2023-02-25T22:16:15.738Z,1.30
2023-02-25T22:18:42.760Z,0.85
2023-02-25T22:21:20.806Z,0.70
2023-02-25T22:23:48.993Z,0.90
2023-02-25T22:26:18.460Z,0.70
2023-02-25T22:28:45.682Z,0.90
2023-02-25T22:31:15.530Z,0.82
2023-02-25T22:33:43.912Z,0.70
2023-02-25T22:36:11.732Z,0.80
2023-02-25T22:38:40.453Z,0.90
2023-02-25T22:41:17.046Z,0.98
2023-02-25T22:43:44.008Z,0.70
2023-02-25T22:46:13.767Z,0.73
2023-02-25T22:48:42.393Z,0.90
2023-02-25T22:51:09.996Z,0.88
2023-02-25T22:53:38.842Z,0.90
2023-02-25T22:56:08.991Z,0.90
2023-02-25T22:58:38.771Z,0.90
2023-02-25T23:01:05.949Z,0.75
2023-02-25T23:03:32.626Z,1.05
2023-02-25T23:05:59.159Z,0.70
2023-02-25T23:08:26.406Z,0.90
2023-02-25T23:10:53.829Z,0.70
2023-02-25T23:13:21.049Z,0.80
2023-02-25T23:15:47.896Z,0.82
2023-02-25T23:18:15.830Z,0.93
2023-02-25T23:20:42.970Z,0.90
2023-02-25T23:23:09.642Z,1.10
2023-02-25T23:25:40.149Z,0.90
2023-02-25T23:28:08.895Z,0.85
2023-02-25T23:30:39.271Z,0.82
2023-02-25T23:33:06.628Z,0.85
2023-02-25T23:35:34.065Z,1.05
2023-02-25T23:38:00.991Z,0.85
2023-02-25T23:40:28.912Z,0.90
2023-02-25T23:42:55.753Z,0.70
2023-02-25T23:45:22.409Z,0.80
2023-02-25T23:47:49.058Z,0.90
2023-02-25T23:50:16.713Z,0.85
2023-02-25T23:52:44.935Z,1.02
2023-02-25T23:55:12.424Z,0.90
2023-02-25T23:57:39.600Z,0.82
